Boris Syromyatnikov — UCUF — position and weather

sailwx.info

Track history (hours):
 
Tides and Currents Weather Stations Pressure Air Temp Water Temp Dewpoint Dewpoint Depression Visibility Wind Speed Wind Dir Waves Ship Positions

Boris Syromyatnikov

Last reported at 2016-Jun-21 02:25 UTC. Time now 2016-Jun-27 18:39 UTC.
Position N 58°43' E 004°32'.

Length 120 m; beam 19 m.

Type: Fishing. MMSI: 273529800.

Date/timePositionNaut miles runAvg speedWind from/ knotsBaromVisibWave heightAir tempDewpointWater temp
2016-Jun-21 02:25N 58°43' E 004°32'1213.7
2016-Jun-21 01:33N 58°36' E 004°49'1414.1
2016-Jun-21 00:33N 58°27' E 005°10'1514.6
2016-Jun-20 23:33N 58°17' E 005°31'1914.7
2016-Jun-20 22:16N 58°05' E 005°58'1014.3
2016-Jun-20 21:33N 57°58' E 006°12'1514.8
2016-Jun-20 20:33N 57°48' E 006°33'1514.3
2016-Jun-20 19:30N 57°46' E 007°01'11213.4
2016-Jun-20 11:11N 57°47' E 010°30'913.6
2016-Jun-20 10:33N 57°47' E 010°47'1514.4
2016-Jun-20 09:33N 57°41' E 011°12'1212.6
2016-Jun-20 08:34N 57°37' E 011°34'5 5.3
2016-Jun-20 07:33N 57°40' E 011°41'0 0.0
2016-Jun-20 06:33N 57°40' E 011°41'0 0.0
2016-Jun-20 05:33N 57°40' E 011°41'0 0.0
2016-Jun-20 04:32N 57°40' E 011°41'0 0.0
2016-Jun-20 03:32N 57°40' E 011°41'0 0.0
2016-Jun-20 02:32N 57°40' E 011°41'0 0.0
2016-Jun-20 01:32N 57°40' E 011°41'0 0.0
2016-Jun-20 00:32N 57°40' E 011°41'0 0.0
2016-Jun-19 23:32N 57°40' E 011°41'0 0.0
2016-Jun-19 22:29N 57°40' E 011°41'0 0.0
2016-Jun-19 21:32N 57°40' E 011°41'0 0.0
2016-Jun-19 20:32N 57°40' E 011°41'0 0.0
2016-Jun-19 19:32N 57°40' E 011°41'0 0.0
2016-Jun-19 18:32N 57°40' E 011°41'0 0.3
2016-Jun-19 17:33N 57°40' E 011°41'10 9.8
2016-Jun-19 16:33N 57°30' E 011°37'1313.4
2016-Jun-19 15:33N 57°17' E 011°38'1413.7
2016-Jun-19 14:33N 57°04' E 011°43'1413.8
2016-Jun-19 13:33N 56°51' E 011°52'1413.7
2016-Jun-19 12:33N 56°39' E 012°06'1513.8
2016-Jun-19 11:29N 56°25' E 012°15'1213.4
2016-Jun-19 10:33N 56°14' E 012°23'1312.8
2016-Jun-19 09:33N 56°04' E 012°38'1211.6
2016-Jun-19 08:33N 55°53' E 012°45'9 9.1
2016-Jun-19 07:33N 55°44' E 012°40'4 4.4
2016-Jun-19 06:33N 55°40' E 012°42'1211.6
2016-Jun-19 05:34N 55°29' E 012°43'1211.9
2016-Jun-19 04:33N 55°17' E 012°48'1413.9
2016-Jun-19 03:33N 55°16' E 013°12'1414.3
2016-Jun-19 02:33N 55°14' E 013°37'1514.6
2016-Jun-19 01:34N 55°14' E 014°03'1313.0
2016-Jun-19 00:33N 55°19' E 014°24'1313.5
2016-Jun-18 23:33N 55°28' E 014°42'1414.3
2016-Jun-18 22:34N 55°27' E 015°07'1414.2
2016-Jun-18 21:33N 55°25' E 015°32'1414.0
2016-Jun-18 20:33N 55°22' E 015°56'8213.4
2016-Jun-18 14:29N 55°03' E 018°15'1213.3
2016-Jun-18 13:33N 54°59' E 018°35'1312.9
2016-Jun-18 12:33N 54°50' E 018°51'1212.4
2016-Jun-18 11:33N 54°38' E 018°56'1414.4
2016-Jun-18 10:33N 54°27' E 018°41'4 3.9
2016-Jun-18 09:32N 54°23' E 018°40'1 1.4
2016-Jun-18 08:32N 54°22' E 018°40'0 0.0
2016-Jun-18 07:32N 54°22' E 018°40'0 0.0
2016-Jun-18 06:32N 54°22' E 018°40'0 0.0
2016-Jun-18 05:29N 54°22' E 018°40'0 0.0
2016-Jun-18 04:29N 54°22' E 018°40'0 0.0
2016-Jun-18 03:29N 54°22' E 018°40'0 0.0
2016-Jun-18 02:32N 54°22' E 018°40'0 0.0
2016-Jun-18 01:32N 54°22' E 018°40'0 0.0
2016-Jun-18 00:33N 54°22' E 018°40'0 0.0
2016-Jun-17 23:32N 54°22' E 018°40'0 0.0
2016-Jun-17 22:32N 54°22' E 018°40'0 0.0
2016-Jun-17 21:32N 54°22' E 018°40'0 0.0
2016-Jun-17 20:32N 54°22' E 018°40'0 0.0
2016-Jun-17 19:32N 54°22' E 018°40'0 0.0
2016-Jun-17 18:32N 54°22' E 018°40'0 0.0
2016-Jun-17 17:32N 54°22' E 018°40'0 0.0
2016-Jun-17 16:32N 54°22' E 018°40'0 0.0
2016-Jun-17 15:32N 54°22' E 018°40'0 0.0
2016-Jun-17 14:32N 54°22' E 018°40'0 0.0
2016-Jun-17 13:32N 54°22' E 018°40'0 0.0
2016-Jun-17 12:32N 54°22' E 018°40'0 0.0
2016-Jun-17 11:32N 54°22' E 018°40'0 0.0
2016-Jun-17 10:32N 54°22' E 018°40'0 0.0
2016-Jun-17 09:32N 54°22' E 018°40'0 0.0
2016-Jun-17 08:32N 54°22' E 018°40'0 0.0
2016-Jun-17 07:32N 54°22' E 018°40'0 0.0
2016-Jun-17 06:32N 54°22' E 018°40'0 0.0
2016-Jun-17 05:32N 54°22' E 018°40'0 0.0
2016-Jun-17 04:29N 54°22' E 018°40'0 0.0
2016-Jun-17 03:29N 54°22' E 018°40'0 0.0
2016-Jun-17 02:32N 54°22' E 018°40'0 0.0
2016-Jun-17 01:32N 54°22' E 018°40'0 0.0
2016-Jun-17 00:32N 54°22' E 018°40'0 0.0
2016-Jun-16 23:32N 54°22' E 018°40'0 0.0
2016-Jun-16 22:32N 54°22' E 018°40'0 0.0
2016-Jun-16 21:32N 54°22' E 018°40'0 0.0
2016-Jun-16 20:32N 54°22' E 018°40'0 0.0
2016-Jun-16 19:32N 54°22' E 018°40'0 0.0
2016-Jun-16 18:32N 54°22' E 018°40'0 0.0
2016-Jun-16 17:32N 54°22' E 018°40'0 0.0
2016-Jun-16 16:29N 54°22' E 018°40'0 0.0
2016-Jun-16 15:32N 54°22' E 018°40'0 0.0
2016-Jun-16 14:31N 54°22' E 018°40'0 0.0
2016-Jun-16 13:31N 54°22' E 018°40'0 0.0
2016-Jun-16 12:31N 54°22' E 018°40'0 0.0
2016-Jun-16 11:31N 54°22' E 018°40'0 0.0
2016-Jun-16 10:28N 54°22' E 018°40'0 0.0
2016-Jun-16 09:31N 54°22' E 018°40'0 0.0
2016-Jun-16 08:31N 54°22' E 018°40'0 0.0
2016-Jun-16 07:31N 54°22' E 018°40'0 0.0
2016-Jun-16 06:31N 54°22' E 018°40'0 0.0
2016-Jun-16 05:31N 54°22' E 018°40'0 0.0
2016-Jun-16 04:31N 54°22' E 018°40'0 0.0
2016-Jun-16 03:31N 54°22' E 018°40'0 0.0
2016-Jun-16 02:31N 54°22' E 018°40'0 0.0
2016-Jun-16 01:31N 54°22' E 018°40'0 0.0
2016-Jun-16 00:31N 54°22' E 018°40'0 0.0
2016-Jun-15 23:31N 54°22' E 018°40'0 0.0
2016-Jun-15 22:31N 54°22' E 018°40'0 0.0
2016-Jun-15 21:31N 54°22' E 018°40'0 0.0
2016-Jun-15 20:31N 54°22' E 018°40'0 0.0
2016-Jun-15 19:31N 54°22' E 018°40'0 0.0
2016-Jun-15 18:31N 54°22' E 018°40'0 0.0
2016-Jun-15 17:31N 54°22' E 018°40'0 0.0
2016-Jun-15 16:31N 54°22' E 018°40'0 0.0
2016-Jun-15 15:31N 54°22' E 018°40'0 0.0
2016-Jun-15 14:31N 54°22' E 018°40'0 0.0
2016-Jun-15 13:28N 54°22' E 018°40'0 0.0
2016-Jun-15 12:31N 54°22' E 018°40'0 0.0
2016-Jun-15 11:28N 54°22' E 018°40'0 0.0
2016-Jun-15 10:31N 54°22' E 018°40'0 0.0
2016-Jun-15 09:31N 54°22' E 018°40'0 0.0
2016-Jun-15 08:31N 54°22' E 018°40'0 0.0
2016-Jun-15 07:31N 54°22' E 018°40'0 0.0
2016-Jun-15 06:31N 54°22' E 018°40'0 0.0
2016-Jun-15 05:31N 54°22' E 018°40'0 0.0
2016-Jun-15 04:31N 54°22' E 018°40'0 0.0
2016-Jun-15 03:31N 54°22' E 018°40'0 0.0
2016-Jun-15 02:31N 54°22' E 018°40'0 0.0
2016-Jun-15 01:31N 54°22' E 018°40'0 0.0
2016-Jun-15 00:31N 54°22' E 018°40'0 0.0
2016-Jun-14 23:34N 54°22' E 018°40'0 0.0
2016-Jun-14 22:34N 54°22' E 018°40'0 0.0
2016-Jun-14 21:34N 54°22' E 018°40'0 0.0
2016-Jun-14 20:33N 54°22' E 018°40'0 0.0
2016-Jun-14 19:33N 54°22' E 018°40'0 0.0
2016-Jun-14 18:33N 54°22' E 018°40'0 0.0
2016-Jun-14 17:33N 54°22' E 018°40'0 0.0
2016-Jun-14 16:33N 54°22' E 018°40'0 0.0
2016-Jun-14 15:33N 54°22' E 018°40'0 0.0
2016-Jun-14 14:33N 54°22' E 018°40'0 0.0
2016-Jun-14 13:33N 54°22' E 018°40'0 0.0
2016-Jun-14 12:33N 54°22' E 018°40'0 0.0
2016-Jun-14 11:33N 54°22' E 018°40'0 0.0
2016-Jun-14 10:33N 54°22' E 018°40'0 0.0
2016-Jun-14 09:33N 54°22' E 018°40'0 0.0
2016-Jun-14 08:33N 54°22' E 018°40'0 0.0
2016-Jun-14 07:33N 54°22' E 018°40'0 0.0
2016-Jun-14 05:33N 54°22' E 018°40'0 0.0
2016-Jun-14 04:33N 54°22' E 018°40'0 0.0
2016-Jun-14 03:33N 54°22' E 018°40'0 0.0
2016-Jun-14 02:33N 54°22' E 018°40'0 0.0
2016-Jun-14 01:33N 54°22' E 018°40'0 0.0
2016-Jun-14 00:30N 54°22' E 018°40'0 0.0
2016-Jun-13 23:33N 54°22' E 018°40'0 0.0
2016-Jun-13 22:33N 54°22' E 018°40'0 0.0
2016-Jun-13 21:33N 54°22' E 018°40'0 0.0
2016-Jun-13 20:33N 54°22' E 018°40'0 0.0
2016-Jun-13 19:33N 54°22' E 018°40'0 0.0
2016-Jun-13 18:33N 54°22' E 018°40'0 0.0
2016-Jun-13 17:33N 54°22' E 018°40'0 0.0
2016-Jun-13 16:30N 54°22' E 018°40'0 0.0
2016-Jun-13 15:33N 54°22' E 018°40'0 0.0
2016-Jun-13 14:33N 54°22' E 018°40'0 0.0
2016-Jun-13 13:33N 54°22' E 018°40'0 0.0
2016-Jun-13 12:33N 54°22' E 018°40'0 0.0
2016-Jun-13 11:30N 54°22' E 018°40'0 0.0
2016-Jun-13 10:33N 54°22' E 018°40'0 0.0
2016-Jun-13 09:33N 54°22' E 018°40'0 0.0
2016-Jun-13 08:33N 54°22' E 018°40'0 0.0
2016-Jun-13 07:33N 54°22' E 018°40'0 0.0
2016-Jun-13 06:33N 54°22' E 018°40'0 0.0
2016-Jun-13 05:33N 54°22' E 018°40'0 0.0
2016-Jun-13 04:33N 54°22' E 018°40'0 0.0
2016-Jun-13 03:33N 54°22' E 018°40'0 0.0
2016-Jun-13 02:32N 54°22' E 018°40'0 0.0
2016-Jun-13 01:32N 54°22' E 018°40'0 0.0
2016-Jun-13 00:32N 54°22' E 018°40'0 0.0
2016-Jun-12 23:32N 54°22' E 018°40'0 0.0
2016-Jun-12 22:32N 54°22' E 018°40'0 0.0
2016-Jun-12 21:32N 54°22' E 018°40'0 0.0
2016-Jun-12 20:32N 54°22' E 018°40'0 0.0
2016-Jun-12 19:32N 54°22' E 018°40'0 0.0
2016-Jun-12 18:32N 54°22' E 018°40'0 0.0
2016-Jun-12 17:32N 54°22' E 018°40'0 0.0
2016-Jun-12 16:32N 54°22' E 018°40'0 0.0
2016-Jun-12 15:32N 54°22' E 018°40'0 0.0
2016-Jun-12 14:32N 54°22' E 018°40'0 0.0
2016-Jun-12 13:32N 54°22' E 018°40'0 0.0
2016-Jun-12 12:32N 54°22' E 018°40'0 0.0
2016-Jun-12 11:29N 54°22' E 018°40'0 0.0
2016-Jun-12 10:32N 54°22' E 018°40'0 0.0
2016-Jun-12 09:32N 54°22' E 018°40'0 0.0
2016-Jun-12 08:32N 54°22' E 018°40'0 0.0
2016-Jun-12 07:29N 54°22' E 018°40'0 0.0
2016-Jun-12 06:26N 54°22' E 018°40'0 0.0
2016-Jun-12 04:33N 54°22' E 018°40'0 0.0
2016-Jun-12 03:33N 54°22' E 018°40'0 0.0
2016-Jun-12 02:33N 54°22' E 018°40'0 0.0
2016-Jun-12 01:33N 54°22' E 018°40'0 0.0
2016-Jun-12 00:33N 54°22' E 018°40'0 0.0
2016-Jun-11 23:27N 54°22' E 018°40'0 0.0
2016-Jun-11 22:33N 54°22' E 018°40'0 0.0
2016-Jun-11 21:32N 54°22' E 018°40'0 0.0
2016-Jun-11 20:32N 54°22' E 018°40'0 0.0
2016-Jun-11 19:32N 54°22' E 018°40'0 0.0
2016-Jun-11 18:59N 54°22' E 018°40'0 0.0
2016-Jun-11 18:32N 54°22' E 018°40'0 0.0
2016-Jun-11 17:32N 54°22' E 018°40'0 0.0
2016-Jun-11 16:32N 54°22' E 018°40'0 0.0
2016-Jun-11 15:32N 54°22' E 018°40'0 0.0
2016-Jun-11 14:32N 54°22' E 018°40'0 0.0
2016-Jun-11 13:32N 54°22' E 018°40'0 0.0
2016-Jun-11 12:32N 54°22' E 018°40'0 0.0
2016-Jun-11 11:32N 54°22' E 018°40'0 0.0
2016-Jun-11 10:32N 54°22' E 018°40'0 0.0
2016-Jun-11 09:32N 54°22' E 018°40'0 0.0
2016-Jun-11 08:32N 54°22' E 018°40'0 0.0
2016-Jun-11 07:32N 54°22' E 018°40'0 0.0
2016-Jun-11 06:32N 54°22' E 018°40'0 0.0
2016-Jun-11 05:32N 54°22' E 018°40'0 0.0
2016-Jun-11 04:32N 54°22' E 018°40'0 0.0
2016-Jun-11 03:32N 54°22' E 018°40'0 0.0
2016-Jun-11 02:32N 54°22' E 018°40'  
Track history (hours):
 
Tides and Currents Weather Stations Pressure Air Temp Water Temp Dewpoint Dewpoint Depression Visibility Wind Speed Wind Dir Waves Ship Positions

Boris Syromyatnikov

Last reported at 2016-Jun-21 02:25 UTC. Time now 2016-Jun-27 18:39 UTC.
Position N 58°43' E 004°32'.

Length 120 m; beam 19 m.

Type: Fishing. MMSI: 273529800.

Date/timePositionNaut miles runAvg speedWind from/ knotsBaromVisibWave heightAir tempDewpointWater temp
2016-Jun-21 02:25N 58°43' E 004°32'1213.7
2016-Jun-21 01:33N 58°36' E 004°49'1414.1
2016-Jun-21 00:33N 58°27' E 005°10'1514.6
2016-Jun-20 23:33N 58°17' E 005°31'1914.7
2016-Jun-20 22:16N 58°05' E 005°58'1014.3
2016-Jun-20 21:33N 57°58' E 006°12'1514.8
2016-Jun-20 20:33N 57°48' E 006°33'1514.3
2016-Jun-20 19:30N 57°46' E 007°01'11213.4
2016-Jun-20 11:11N 57°47' E 010°30'913.6
2016-Jun-20 10:33N 57°47' E 010°47'1514.4
2016-Jun-20 09:33N 57°41' E 011°12'1212.6
2016-Jun-20 08:34N 57°37' E 011°34'5 5.3
2016-Jun-20 07:33N 57°40' E 011°41'0 0.0
2016-Jun-20 06:33N 57°40' E 011°41'0 0.0
2016-Jun-20 05:33N 57°40' E 011°41'0 0.0
2016-Jun-20 04:32N 57°40' E 011°41'0 0.0
2016-Jun-20 03:32N 57°40' E 011°41'0 0.0
2016-Jun-20 02:32N 57°40' E 011°41'0 0.0
2016-Jun-20 01:32N 57°40' E 011°41'0 0.0
2016-Jun-20 00:32N 57°40' E 011°41'0 0.0
2016-Jun-19 23:32N 57°40' E 011°41'0 0.0
2016-Jun-19 22:29N 57°40' E 011°41'0 0.0
2016-Jun-19 21:32N 57°40' E 011°41'0 0.0
2016-Jun-19 20:32N 57°40' E 011°41'0 0.0
2016-Jun-19 19:32N 57°40' E 011°41'0 0.0
2016-Jun-19 18:32N 57°40' E 011°41'0 0.3
2016-Jun-19 17:33N 57°40' E 011°41'10 9.8
2016-Jun-19 16:33N 57°30' E 011°37'1313.4
2016-Jun-19 15:33N 57°17' E 011°38'1413.7
2016-Jun-19 14:33N 57°04' E 011°43'1413.8
2016-Jun-19 13:33N 56°51' E 011°52'1413.7
2016-Jun-19 12:33N 56°39' E 012°06'1513.8
2016-Jun-19 11:29N 56°25' E 012°15'1213.4
2016-Jun-19 10:33N 56°14' E 012°23'1312.8
2016-Jun-19 09:33N 56°04' E 012°38'1211.6
2016-Jun-19 08:33N 55°53' E 012°45'9 9.1
2016-Jun-19 07:33N 55°44' E 012°40'4 4.4
2016-Jun-19 06:33N 55°40' E 012°42'1211.6
2016-Jun-19 05:34N 55°29' E 012°43'1211.9
2016-Jun-19 04:33N 55°17' E 012°48'1413.9
2016-Jun-19 03:33N 55°16' E 013°12'1414.3
2016-Jun-19 02:33N 55°14' E 013°37'1514.6
2016-Jun-19 01:34N 55°14' E 014°03'1313.0
2016-Jun-19 00:33N 55°19' E 014°24'1313.5
2016-Jun-18 23:33N 55°28' E 014°42'1414.3
2016-Jun-18 22:34N 55°27' E 015°07'1414.2
2016-Jun-18 21:33N 55°25' E 015°32'1414.0
2016-Jun-18 20:33N 55°22' E 015°56'8213.4
2016-Jun-18 14:29N 55°03' E 018°15'1213.3
2016-Jun-18 13:33N 54°59' E 018°35'1312.9
2016-Jun-18 12:33N 54°50' E 018°51'1212.4
2016-Jun-18 11:33N 54°38' E 018°56'1414.4
2016-Jun-18 10:33N 54°27' E 018°41'4 3.9
2016-Jun-18 09:32N 54°23' E 018°40'1 1.4
2016-Jun-18 08:32N 54°22' E 018°40'0 0.0
2016-Jun-18 07:32N 54°22' E 018°40'0 0.0
2016-Jun-18 06:32N 54°22' E 018°40'0 0.0
2016-Jun-18 05:29N 54°22' E 018°40'0 0.0
2016-Jun-18 04:29N 54°22' E 018°40'0 0.0
2016-Jun-18 03:29N 54°22' E 018°40'0 0.0
2016-Jun-18 02:32N 54°22' E 018°40'0 0.0
2016-Jun-18 01:32N 54°22' E 018°40'0 0.0
2016-Jun-18 00:33N 54°22' E 018°40'0 0.0
2016-Jun-17 23:32N 54°22' E 018°40'0 0.0
2016-Jun-17 22:32N 54°22' E 018°40'0 0.0
2016-Jun-17 21:32N 54°22' E 018°40'0 0.0
2016-Jun-17 20:32N 54°22' E 018°40'0 0.0
2016-Jun-17 19:32N 54°22' E 018°40'0 0.0
2016-Jun-17 18:32N 54°22' E 018°40'0 0.0
2016-Jun-17 17:32N 54°22' E 018°40'0 0.0
2016-Jun-17 16:32N 54°22' E 018°40'0 0.0
2016-Jun-17 15:32N 54°22' E 018°40'0 0.0
2016-Jun-17 14:32N 54°22' E 018°40'0 0.0
2016-Jun-17 13:32N 54°22' E 018°40'0 0.0
2016-Jun-17 12:32N 54°22' E 018°40'0 0.0
2016-Jun-17 11:32N 54°22' E 018°40'0 0.0
2016-Jun-17 10:32N 54°22' E 018°40'0 0.0
2016-Jun-17 09:32N 54°22' E 018°40'0 0.0
2016-Jun-17 08:32N 54°22' E 018°40'0 0.0
2016-Jun-17 07:32N 54°22' E 018°40'0 0.0
2016-Jun-17 06:32N 54°22' E 018°40'0 0.0
2016-Jun-17 05:32N 54°22' E 018°40'0 0.0
2016-Jun-17 04:29N 54°22' E 018°40'0 0.0
2016-Jun-17 03:29N 54°22' E 018°40'0 0.0
2016-Jun-17 02:32N 54°22' E 018°40'0 0.0
2016-Jun-17 01:32N 54°22' E 018°40'0 0.0
2016-Jun-17 00:32N 54°22' E 018°40'0 0.0
2016-Jun-16 23:32N 54°22' E 018°40'0 0.0
2016-Jun-16 22:32N 54°22' E 018°40'0 0.0
2016-Jun-16 21:32N 54°22' E 018°40'0 0.0
2016-Jun-16 20:32N 54°22' E 018°40'0 0.0
2016-Jun-16 19:32N 54°22' E 018°40'0 0.0
2016-Jun-16 18:32N 54°22' E 018°40'0 0.0
2016-Jun-16 17:32N 54°22' E 018°40'0 0.0
2016-Jun-16 16:29N 54°22' E 018°40'0 0.0
2016-Jun-16 15:32N 54°22' E 018°40'0 0.0
2016-Jun-16 14:31N 54°22' E 018°40'0 0.0
2016-Jun-16 13:31N 54°22' E 018°40'0 0.0
2016-Jun-16 12:31N 54°22' E 018°40'0 0.0
2016-Jun-16 11:31N 54°22' E 018°40'0 0.0
2016-Jun-16 10:28N 54°22' E 018°40'0 0.0
2016-Jun-16 09:31N 54°22' E 018°40'0 0.0
2016-Jun-16 08:31N 54°22' E 018°40'0 0.0
2016-Jun-16 07:31N 54°22' E 018°40'0 0.0
2016-Jun-16 06:31N 54°22' E 018°40'0 0.0
2016-Jun-16 05:31N 54°22' E 018°40'0 0.0
2016-Jun-16 04:31N 54°22' E 018°40'0 0.0
2016-Jun-16 03:31N 54°22' E 018°40'0 0.0
2016-Jun-16 02:31N 54°22' E 018°40'0 0.0
2016-Jun-16 01:31N 54°22' E 018°40'0 0.0
2016-Jun-16 00:31N 54°22' E 018°40'0 0.0
2016-Jun-15 23:31N 54°22' E 018°40'0 0.0
2016-Jun-15 22:31N 54°22' E 018°40'0 0.0
2016-Jun-15 21:31N 54°22' E 018°40'0 0.0
2016-Jun-15 20:31N 54°22' E 018°40'0 0.0
2016-Jun-15 19:31N 54°22' E 018°40'0 0.0
2016-Jun-15 18:31N 54°22' E 018°40'0 0.0
2016-Jun-15 17:31N 54°22' E 018°40'0 0.0
2016-Jun-15 16:31N 54°22' E 018°40'0 0.0
2016-Jun-15 15:31N 54°22' E 018°40'0 0.0
2016-Jun-15 14:31N 54°22' E 018°40'0 0.0
2016-Jun-15 13:28N 54°22' E 018°40'0 0.0
2016-Jun-15 12:31N 54°22' E 018°40'0 0.0
2016-Jun-15 11:28N 54°22' E 018°40'0 0.0
2016-Jun-15 10:31N 54°22' E 018°40'0 0.0
2016-Jun-15 09:31N 54°22' E 018°40'0 0.0
2016-Jun-15 08:31N 54°22' E 018°40'0 0.0
2016-Jun-15 07:31N 54°22' E 018°40'0 0.0
2016-Jun-15 06:31N 54°22' E 018°40'0 0.0
2016-Jun-15 05:31N 54°22' E 018°40'0 0.0
2016-Jun-15 04:31N 54°22' E 018°40'0 0.0
2016-Jun-15 03:31N 54°22' E 018°40'0 0.0
2016-Jun-15 02:31N 54°22' E 018°40'0 0.0
2016-Jun-15 01:31N 54°22' E 018°40'0 0.0
2016-Jun-15 00:31N 54°22' E 018°40'0 0.0
2016-Jun-14 23:34N 54°22' E 018°40'0 0.0
2016-Jun-14 22:34N 54°22' E 018°40'0 0.0
2016-Jun-14 21:34N 54°22' E 018°40'0 0.0
2016-Jun-14 20:33N 54°22' E 018°40'0 0.0
2016-Jun-14 19:33N 54°22' E 018°40'0 0.0
2016-Jun-14 18:33N 54°22' E 018°40'0 0.0
2016-Jun-14 17:33N 54°22' E 018°40'0 0.0
2016-Jun-14 16:33N 54°22' E 018°40'0 0.0
2016-Jun-14 15:33N 54°22' E 018°40'0 0.0
2016-Jun-14 14:33N 54°22' E 018°40'0 0.0
2016-Jun-14 13:33N 54°22' E 018°40'0 0.0
2016-Jun-14 12:33N 54°22' E 018°40'0 0.0
2016-Jun-14 11:33N 54°22' E 018°40'0 0.0
2016-Jun-14 10:33N 54°22' E 018°40'0 0.0
2016-Jun-14 09:33N 54°22' E 018°40'0 0.0
2016-Jun-14 08:33N 54°22' E 018°40'0 0.0
2016-Jun-14 07:33N 54°22' E 018°40'0 0.0
2016-Jun-14 05:33N 54°22' E 018°40'0 0.0
2016-Jun-14 04:33N 54°22' E 018°40'0 0.0
2016-Jun-14 03:33N 54°22' E 018°40'0 0.0
2016-Jun-14 02:33N 54°22' E 018°40'0 0.0
2016-Jun-14 01:33N 54°22' E 018°40'0 0.0
2016-Jun-14 00:30N 54°22' E 018°40'0 0.0
2016-Jun-13 23:33N 54°22' E 018°40'0 0.0
2016-Jun-13 22:33N 54°22' E 018°40'0 0.0
2016-Jun-13 21:33N 54°22' E 018°40'0 0.0
2016-Jun-13 20:33N 54°22' E 018°40'0 0.0
2016-Jun-13 19:33N 54°22' E 018°40'0 0.0
2016-Jun-13 18:33N 54°22' E 018°40'0 0.0
2016-Jun-13 17:33N 54°22' E 018°40'0 0.0
2016-Jun-13 16:30N 54°22' E 018°40'0 0.0
2016-Jun-13 15:33N 54°22' E 018°40'0 0.0
2016-Jun-13 14:33N 54°22' E 018°40'0 0.0
2016-Jun-13 13:33N 54°22' E 018°40'0 0.0
2016-Jun-13 12:33N 54°22' E 018°40'0 0.0
2016-Jun-13 11:30N 54°22' E 018°40'0 0.0
2016-Jun-13 10:33N 54°22' E 018°40'0 0.0
2016-Jun-13 09:33N 54°22' E 018°40'0 0.0
2016-Jun-13 08:33N 54°22' E 018°40'0 0.0
2016-Jun-13 07:33N 54°22' E 018°40'0 0.0
2016-Jun-13 06:33N 54°22' E 018°40'0 0.0
2016-Jun-13 05:33N 54°22' E 018°40'0 0.0
2016-Jun-13 04:33N 54°22' E 018°40'0 0.0
2016-Jun-13 03:33N 54°22' E 018°40'0 0.0
2016-Jun-13 02:32N 54°22' E 018°40'0 0.0
2016-Jun-13 01:32N 54°22' E 018°40'0 0.0
2016-Jun-13 00:32N 54°22' E 018°40'0 0.0
2016-Jun-12 23:32N 54°22' E 018°40'0 0.0
2016-Jun-12 22:32N 54°22' E 018°40'0 0.0
2016-Jun-12 21:32N 54°22' E 018°40'0 0.0
2016-Jun-12 20:32N 54°22' E 018°40'0 0.0
2016-Jun-12 19:32N 54°22' E 018°40'0 0.0
2016-Jun-12 18:32N 54°22' E 018°40'0 0.0
2016-Jun-12 17:32N 54°22' E 018°40'0 0.0
2016-Jun-12 16:32N 54°22' E 018°40'0 0.0
2016-Jun-12 15:32N 54°22' E 018°40'0 0.0
2016-Jun-12 14:32N 54°22' E 018°40'0 0.0
2016-Jun-12 13:32N 54°22' E 018°40'0 0.0
2016-Jun-12 12:32N 54°22' E 018°40'0 0.0
2016-Jun-12 11:29N 54°22' E 018°40'0 0.0
2016-Jun-12 10:32N 54°22' E 018°40'0 0.0
2016-Jun-12 09:32N 54°22' E 018°40'0 0.0
2016-Jun-12 08:32N 54°22' E 018°40'0 0.0
2016-Jun-12 07:29N 54°22' E 018°40'0 0.0
2016-Jun-12 06:26N 54°22' E 018°40'0 0.0
2016-Jun-12 04:33N 54°22' E 018°40'0 0.0
2016-Jun-12 03:33N 54°22' E 018°40'0 0.0
2016-Jun-12 02:33N 54°22' E 018°40'0 0.0
2016-Jun-12 01:33N 54°22' E 018°40'0 0.0
2016-Jun-12 00:33N 54°22' E 018°40'0 0.0
2016-Jun-11 23:27N 54°22' E 018°40'0 0.0
2016-Jun-11 22:33N 54°22' E 018°40'0 0.0
2016-Jun-11 21:32N 54°22' E 018°40'0 0.0
2016-Jun-11 20:32N 54°22' E 018°40'0 0.0
2016-Jun-11 19:32N 54°22' E 018°40'0 0.0
2016-Jun-11 18:59N 54°22' E 018°40'0 0.0
2016-Jun-11 18:32N 54°22' E 018°40'0 0.0
2016-Jun-11 17:32N 54°22' E 018°40'0 0.0
2016-Jun-11 16:32N 54°22' E 018°40'0 0.0
2016-Jun-11 15:32N 54°22' E 018°40'0 0.0
2016-Jun-11 14:32N 54°22' E 018°40'0 0.0
2016-Jun-11 13:32N 54°22' E 018°40'0 0.0
2016-Jun-11 12:32N 54°22' E 018°40'0 0.0
2016-Jun-11 11:32N 54°22' E 018°40'0 0.0
2016-Jun-11 10:32N 54°22' E 018°40'0 0.0
2016-Jun-11 09:32N 54°22' E 018°40'0 0.0
2016-Jun-11 08:32N 54°22' E 018°40'0 0.0
2016-Jun-11 07:32N 54°22' E 018°40'0 0.0
2016-Jun-11 06:32N 54°22' E 018°40'0 0.0
2016-Jun-11 05:32N 54°22' E 018°40'0 0.0
2016-Jun-11 04:32N 54°22' E 018°40'0 0.0
2016-Jun-11 03:32N 54°22' E 018°40'0 0.0
2016-Jun-11 02:32N 54°22' E 018°40'  

Dump ship's entire track history